Time;durP1;ratioP1;P1;durP2;ratioP2;P2;SDS_P1;SDS_P2;PMS_P1;PMS_P2;Temp;Humidity;BMP_temperature;BMP_pressure;BME280_temperature;BME280_humidity;BME280_pressure;Samples;Min_cycle;Max_cycle;Signal;HPM_P1;HPM_P2
2020/12/22 00:01:30;;;;;;;2.70;2.43;;;10.80;1.00;;;;;;4994382;28;20421;-65
2020/12/22 00:03:56;;;;;;;1.92;1.83;;;10.80;99.90;;;;;;4994350;28;20418;-65
2020/12/22 00:06:24;;;;;;;2.00;1.90;;;10.80;99.90;;;;;;4994070;28;20900;-65
2020/12/22 00:08:51;;;;;;;1.50;1.40;;;10.80;99.90;;;;;;4994262;28;20418;-64
2020/12/22 00:11:17;;;;;;;1.70;1.60;;;10.90;99.90;;;;;;4994590;28;20417;-64
2020/12/22 00:13:43;;;;;;;2.60;1.48;;;10.90;99.90;;;;;;4951079;28;1272999;-64
2020/12/22 00:16:10;;;;;;;1.50;1.40;;;10.90;99.90;;;;;;4995690;28;20794;-64
2020/12/22 00:18:36;;;;;;;1.48;1.30;;;11.00;99.90;;;;;;4995405;28;20418;-65
2020/12/22 00:21:02;;;;;;;1.60;1.50;;;11.00;99.90;;;;;;4995158;28;20444;-64
2020/12/22 00:23:29;;;;;;;1.20;1.10;;;11.00;99.90;;;;;;4994993;28;20481;-65
2020/12/22 00:25:56;;;;;;;1.70;1.60;;;11.10;99.90;;;;;;4994866;28;20899;-65
2020/12/22 00:28:22;;;;;;;1.70;1.00;;;11.10;88.30;;;;;;4994855;28;20414;-65
2020/12/22 00:30:49;;;;;;;1.45;1.35;;;11.10;51.80;;;;;;4995062;28;20418;-65
2020/12/22 00:33:15;;;;;;;1.30;1.20;;;11.10;22.10;;;;;;4994838;28;20475;-65
2020/12/22 00:35:42;;;;;;;1.10;1.10;;;11.10;1.50;;;;;;4994707;28;20441;-64
2020/12/22 00:38:08;;;;;;;1.10;1.00;;;11.10;5.30;;;;;;4994483;28;20476;-64
2020/12/22 00:40:35;;;;;;;1.08;0.98;;;11.20;20.30;;;;;;4994557;28;20441;-64
2020/12/22 00:43:02;;;;;;;1.00;0.90;;;11.20;2.30;;;;;;4994794;28;20420;-65
2020/12/22 00:45:30;;;;;;;1.30;1.20;;;11.30;1.00;;;;;;4994659;28;20488;-65
2020/12/22 00:47:56;;;;;;;1.60;1.00;;;11.30;1.00;;;;;;4994551;28;20422;-65
2020/12/22 00:50:23;;;;;;;1.20;1.10;;;11.30;1.00;;;;;;4994542;28;20419;-65
2020/12/22 00:52:49;;;;;;;1.23;1.15;;;11.40;1.00;;;;;;4994486;28;20473;-65
2020/12/22 00:55:15;;;;;;;1.25;1.10;;;11.50;1.00;;;;;;4994584;28;20418;-65
2020/12/22 00:57:42;;;;;;;2.20;1.20;;;11.40;1.00;;;;;;4994382;28;20838;-65
2020/12/22 01:00:12;;;;;;;1.20;1.10;;;11.40;1.00;;;;;;4995241;28;20477;-64
2020/12/22 01:02:38;;;;;;;1.40;1.05;;;11.50;1.00;;;;;;4994049;28;20418;-65
2020/12/22 01:05:05;;;;;;;2.50;1.10;;;11.50;1.00;;;;;;4995173;28;20422;-65
2020/12/22 01:07:31;;;;;;;1.23;1.13;;;11.60;99.90;;;;;;4995017;28;20918;-65
2020/12/22 01:09:57;;;;;;;1.57;1.10;;;11.60;99.90;;;;;;4997440;28;20414;-64
2020/12/22 01:12:23;;;;;;;1.55;0.95;;;11.60;99.90;;;;;;4994859;28;20433;-65
2020/12/22 01:14:50;;;;;;;1.23;1.07;;;11.60;99.90;;;;;;4994373;28;20441;-65
2020/12/22 01:17:18;;;;;;;1.40;1.20;;;11.60;99.90;;;;;;4994615;28;20799;-65
2020/12/22 01:19:44;;;;;;;1.30;1.20;;;11.60;99.90;;;;;;4999266;28;20473;-66
2020/12/22 01:22:10;;;;;;;1.13;1.00;;;11.60;99.90;;;;;;4997584;28;20761;-64
2020/12/22 01:24:36;;;;;;;1.40;1.30;;;11.70;1.00;;;;;;4996340;28;20484;-64
2020/12/22 01:27:02;;;;;;;2.60;1.40;;;11.70;1.00;;;;;;4999185;28;20418;-64
2020/12/22 01:29:28;;;;;;;1.27;1.17;;;11.70;1.00;;;;;;4996328;28;20415;-64
2020/12/22 01:31:55;;;;;;;2.50;1.30;;;11.70;1.00;;;;;;4995183;28;20477;-64
2020/12/22 01:34:21;;;;;;;1.40;1.00;;;11.60;18.80;;;;;;4994811;28;20499;-64
2020/12/22 01:36:47;;;;;;;1.20;1.10;;;11.60;99.90;;;;;;4995421;28;20418;-64
2020/12/22 01:39:14;;;;;;;1.13;1.05;;;11.60;99.90;;;;;;4993657;28;20427;-64
2020/12/22 01:41:40;;;;;;;2.00;1.38;;;11.60;99.90;;;;;;4993773;28;20430;-64
2020/12/22 01:44:07;;;;;;;1.60;1.50;;;11.50;99.90;;;;;;4993428;28;20418;-64
2020/12/22 01:46:36;;;;;;;1.30;1.10;;;11.50;99.90;;;;;;4993476;28;20923;-64
2020/12/22 01:49:04;;;;;;;1.60;1.40;;;11.60;1.00;;;;;;4993436;28;20469;-64
2020/12/22 01:51:31;;;;;;;1.40;1.30;;;11.60;1.00;;;;;;4993424;28;20768;-64
2020/12/22 01:53:58;;;;;;;1.98;1.63;;;11.60;1.00;;;;;;4993403;28;20422;-64
2020/12/22 01:56:24;;;;;;;1.70;1.60;;;11.60;1.00;;;;;;4993185;28;20488;-64
2020/12/22 01:58:50;;;;;;;6.60;1.90;;;11.70;1.00;;;;;;4992905;28;20418;-64
2020/12/22 02:01:17;;;;;;;1.60;1.50;;;11.70;1.00;;;;;;4993367;28;20503;-64
2020/12/22 02:03:43;;;;;;;1.98;1.80;;;11.70;1.00;;;;;;4993196;28;20418;-64
2020/12/22 02:06:10;;;;;;;1.60;1.50;;;11.80;1.00;;;;;;4993313;28;20426;-63
2020/12/22 02:08:36;;;;;;;2.08;1.85;;;11.90;1.00;;;;;;4992826;28;20434;-64
2020/12/22 02:11:02;;;;;;;1.70;1.60;;;11.90;1.00;;;;;;4993239;28;20414;-64
2020/12/22 02:13:29;;;;;;;1.83;1.73;;;11.90;1.00;;;;;;4993064;28;20422;-64
2020/12/22 02:15:55;;;;;;;1.63;1.33;;;12.00;1.00;;;;;;4992387;28;20418;-64
2020/12/22 02:18:21;;;;;;;1.77;1.50;;;12.00;1.00;;;;;;4992939;28;20422;-65
2020/12/22 02:20:48;;;;;;;2.20;2.00;;;12.00;1.00;;;;;;4992790;28;20457;-64
2020/12/22 02:23:15;;;;;;;2.35;1.70;;;12.10;1.00;;;;;;4992674;28;20425;-64
2020/12/22 02:25:46;;;;;;;1.90;1.80;;;12.10;1.00;;;;;;4992439;28;20779;-64
2020/12/22 02:28:13;;;;;;;1.85;1.60;;;12.10;1.00;;;;;;4992477;28;20424;-64
2020/12/22 02:30:39;;;;;;;1.90;1.80;;;12.10;1.00;;;;;;4992381;28;20429;-64
2020/12/22 02:33:05;;;;;;;6.90;1.60;;;12.20;1.00;;;;;;4992353;28;20445;-64
2020/12/22 02:35:31;;;;;;;2.67;1.50;;;12.30;1.00;;;;;;4992487;28;20422;-64
2020/12/22 02:37:57;;;;;;;1.75;1.30;;;12.30;1.00;;;;;;4992485;28;20473;-64
2020/12/22 02:40:24;;;;;;;1.80;1.50;;;12.40;1.00;;;;;;4992528;28;20427;-64
2020/12/22 02:42:51;;;;;;;1.50;1.40;;;12.40;1.00;;;;;;4992757;28;20476;-64
2020/12/22 02:45:17;;;;;;;1.48;1.30;;;12.50;1.00;;;;;;4992191;28;20945;-64
2020/12/22 02:47:43;;;;;;;3.10;1.45;;;12.50;1.00;;;;;;4992380;28;20425;-64
2020/12/22 02:50:09;;;;;;;1.40;1.27;;;12.60;1.00;;;;;;4992482;28;20891;-64
2020/12/22 02:52:35;;;;;;;1.73;1.40;;;12.60;1.00;;;;;;4992440;28;20423;-65
2020/12/22 02:55:01;;;;;;;1.30;1.20;;;12.70;99.90;;;;;;4992722;28;20422;-64
2020/12/22 02:57:28;;;;;;;1.65;1.40;;;12.80;99.90;;;;;;4992280;28;20414;-64
2020/12/22 02:59:54;;;;;;;1.40;1.30;;;12.80;99.90;;;;;;4991906;28;20803;-64
2020/12/22 03:02:20;;;;;;;2.10;1.40;;;12.90;99.90;;;;;;4992074;28;20411;-64
2020/12/22 03:04:46;;;;;;;1.50;1.40;;;12.90;99.90;;;;;;4992012;28;20429;-64
2020/12/22 03:07:13;;;;;;;2.25;1.00;;;12.90;22.20;;;;;;4992108;28;20411;-64
2020/12/22 03:09:39;;;;;;;0.80;0.80;;;13.00;1.00;;;;;;4991844;28;20410;-64
2020/12/22 03:12:05;;;;;;;1.60;1.15;;;13.00;1.00;;;;;;4991984;28;20414;-64
2020/12/22 03:14:32;;;;;;;2.38;1.23;;;13.00;1.00;;;;;;4991881;28;20422;-64
2020/12/22 03:16:58;;;;;;;1.57;1.13;;;13.00;1.00;;;;;;4992243;28;20519;-64
2020/12/22 03:19:24;;;;;;;1.05;0.98;;;13.00;1.00;;;;;;4992116;28;20430;-64
2020/12/22 03:21:50;;;;;;;1.05;1.02;;;13.00;1.00;;;;;;4991956;28;20425;-64
2020/12/22 03:24:16;;;;;;;1.50;0.80;;;13.10;1.00;;;;;;4992070;28;20494;-64
2020/12/22 03:26:42;;;;;;;1.80;1.20;;;13.10;99.90;;;;;;4991064;28;20418;-65
2020/12/22 03:29:08;;;;;;;1.43;1.00;;;13.10;99.90;;;;;;4991825;28;20483;-64
2020/12/22 03:31:35;;;;;;;1.52;0.90;;;13.20;99.90;;;;;;4991886;28;20422;-64
2020/12/22 03:34:01;;;;;;;0.80;0.80;;;13.20;99.90;;;;;;4992653;28;20421;-64
2020/12/22 03:36:27;;;;;;;1.60;1.00;;;13.20;99.90;;;;;;4992285;28;20480;-64
2020/12/22 03:38:53;;;;;;;1.40;0.80;;;13.20;99.90;;;;;;4991627;28;20506;-64
2020/12/22 03:41:21;;;;;;;1.25;1.15;;;13.20;99.90;;;;;;4991681;28;20421;-64
2020/12/22 03:43:47;;;;;;;1.90;1.10;;;13.20;99.90;;;;;;4991678;28;20418;-64
2020/12/22 03:46:14;;;;;;;1.35;0.90;;;13.30;99.90;;;;;;4991630;28;20422;-64
2020/12/22 03:48:41;;;;;;;0.93;0.90;;;13.30;99.90;;;;;;4991668;28;20418;-64
2020/12/22 03:51:07;;;;;;;1.60;1.00;;;13.30;99.90;;;;;;4991614;28;20425;-64
2020/12/22 03:53:33;;;;;;;0.90;0.90;;;13.30;99.90;;;;;;4991664;28;20418;-64
2020/12/22 03:55:59;;;;;;;1.80;1.13;;;13.30;99.90;;;;;;4991341;28;20473;-64
2020/12/22 03:58:25;;;;;;;1.40;1.10;;;13.30;99.90;;;;;;4991320;28;20422;-64
2020/12/22 04:00:51;;;;;;;1.08;0.98;;;13.30;99.90;;;;;;4991586;28;20787;-65
2020/12/22 04:03:17;;;;;;;0.93;0.90;;;13.30;99.90;;;;;;4991238;28;20422;-64
2020/12/22 04:05:44;;;;;;;0.80;0.80;;;13.30;99.90;;;;;;4991469;28;20421;-65
2020/12/22 04:08:10;;;;;;;1.30;0.90;;;13.30;99.90;;;;;;4991268;28;20425;-65
2020/12/22 04:10:36;;;;;;;1.50;0.90;;;13.30;99.90;;;;;;4991349;28;20415;-64
2020/12/22 04:13:02;;;;;;;1.38;1.08;;;13.30;99.90;;;;;;4991256;28;20760;-65
2020/12/22 04:15:29;;;;;;;3.38;1.50;;;13.40;99.90;;;;;;4991305;28;20418;-65
2020/12/22 04:17:55;;;;;;;0.90;0.70;;;13.40;38.80;;;;;;4991235;28;20915;-64
2020/12/22 04:20:21;;;;;;;1.80;0.82;;;13.40;21.40;;;;;;4991142;28;20434;-64
2020/12/22 04:22:48;;;;;;;0.80;0.80;;;13.50;20.20;;;;;;4991159;28;20457;-64
2020/12/22 04:25:14;;;;;;;0.80;0.80;;;13.50;1.00;;;;;;4991354;28;20421;-65
2020/12/22 04:27:40;;;;;;;2.08;0.88;;;13.50;1.00;;;;;;4991098;28;20883;-65
2020/12/22 04:30:06;;;;;;;2.92;1.00;;;13.50;1.00;;;;;;4991234;28;20465;-65
2020/12/22 04:32:32;;;;;;;1.60;0.80;;;13.50;1.00;;;;;;4991196;28;20434;-65
2020/12/22 04:34:58;;;;;;;1.48;1.10;;;13.50;1.00;;;;;;4991384;28;20414;-64
2020/12/22 04:37:25;;;;;;;1.00;0.90;;;13.60;1.00;;;;;;4994977;28;20430;-64
2020/12/22 04:39:52;;;;;;;0.80;0.70;;;13.60;1.00;;;;;;4994366;28;20426;-64
2020/12/22 04:42:21;;;;;;;1.73;0.80;;;13.60;1.00;;;;;;4994674;28;20423;-64
2020/12/22 04:44:48;;;;;;;1.00;0.70;;;13.60;99.90;;;;;;4994551;28;20421;-65
2020/12/22 04:47:16;;;;;;;2.15;0.73;;;13.60;99.90;;;;;;4994347;28;20895;-64
2020/12/22 04:49:44;;;;;;;0.77;0.77;;;13.60;99.90;;;;;;4994274;28;20427;-64
2020/12/22 04:52:10;;;;;;;0.80;0.70;;;13.70;99.90;;;;;;4994390;28;20418;-64
2020/12/22 04:54:37;;;;;;;1.30;0.70;;;13.70;99.90;;;;;;4994673;28;20419;-64
2020/12/22 04:57:05;;;;;;;2.85;0.70;;;13.70;99.90;;;;;;4994322;28;20430;-64
2020/12/22 04:59:32;;;;;;;0.73;0.73;;;13.70;99.90;;;;;;4994067;28;20430;-64
2020/12/22 05:01:59;;;;;;;0.70;0.70;;;13.70;99.90;;;;;;4994365;28;20415;-64
2020/12/22 05:04:33;;;;;;;1.55;0.90;;;13.70;99.90;;;;;;4996071;28;20425;-65
2020/12/22 05:06:59;;;;;;;0.60;0.60;;;13.70;99.90;;;;;;4994205;28;20446;-65
2020/12/22 05:09:25;;;;;;;0.90;0.70;;;13.70;99.90;;;;;;4994100;28;20430;-65
2020/12/22 05:11:51;;;;;;;0.90;0.80;;;13.70;99.90;;;;;;4994294;28;20414;-65
2020/12/22 05:14:18;;;;;;;0.80;0.77;;;13.70;99.90;;;;;;4994080;28;20422;-65
2020/12/22 05:16:44;;;;;;;0.60;0.50;;;13.70;99.90;;;;;;4994988;28;20414;-64
2020/12/22 05:19:11;;;;;;;0.63;0.60;;;13.70;99.90;;;;;;4994085;28;20445;-65
2020/12/22 05:21:39;;;;;;;1.10;0.70;;;13.70;99.90;;;;;;4993526;28;20469;-65
2020/12/22 05:24:05;;;;;;;1.50;0.70;;;13.70;99.90;;;;;;4993999;28;20497;-65
2020/12/22 05:26:33;;;;;;;0.90;0.70;;;13.70;99.90;;;;;;4993807;28;20419;-65
2020/12/22 05:29:09;;;;;;;1.00;0.60;;;13.80;99.90;;;;;;4993763;28;20420;-65
2020/12/22 05:31:41;;;;;;;1.60;1.10;;;13.70;99.90;;;;;;4993640;28;20426;-64
2020/12/22 05:34:10;;;;;;;0.73;0.70;;;13.70;99.90;;;;;;4993519;28;20502;-65
2020/12/22 05:36:38;;;;;;;0.70;0.70;;;13.70;99.90;;;;;;4993671;28;20428;-64
2020/12/22 05:39:05;;;;;;;1.15;0.80;;;13.70;99.90;;;;;;4993441;28;20768;-64
2020/12/22 05:41:33;;;;;;;0.80;0.80;;;13.70;99.90;;;;;;4992938;28;20827;-65
2020/12/22 05:43:59;;;;;;;0.80;0.80;;;13.70;99.90;;;;;;4993373;28;20835;-64
2020/12/22 05:46:28;;;;;;;1.15;0.90;;;13.60;99.90;;;;;;4993288;28;20422;-65
2020/12/22 05:48:59;;;;;;;0.77;0.77;;;13.70;99.90;;;;;;4992239;28;20459;-65
2020/12/22 05:51:25;;;;;;;1.02;0.80;;;13.60;99.90;;;;;;4993424;28;20425;-65
2020/12/22 05:53:53;;;;;;;2.10;1.20;;;13.60;99.90;;;;;;4993408;28;20422;-64
2020/12/22 05:56:22;;;;;;;0.80;0.80;;;13.60;99.90;;;;;;4993209;28;20414;-64
2020/12/22 05:58:49;;;;;;;0.90;0.80;;;13.60;99.90;;;;;;4993116;28;20824;-65
2020/12/22 06:01:29;;;;;;;0.80;0.80;;;13.60;99.90;;;;;;4992887;28;20434;-65
2020/12/22 06:03:57;;;;;;;1.25;0.90;;;13.60;99.90;;;;;;4993102;28;20456;-65
2020/12/22 06:06:26;;;;;;;1.20;1.10;;;13.50;1.00;;;;;;4993045;28;20422;-65
2020/12/22 06:08:53;;;;;;;1.10;1.10;;;13.40;1.00;;;;;;4992818;28;20414;-64
2020/12/22 06:11:19;;;;;;;1.40;1.02;;;13.30;99.90;;;;;;4993090;28;20417;-65
2020/12/22 06:13:47;;;;;;;1.37;1.27;;;13.30;99.90;;;;;;4992582;28;20474;-65
2020/12/22 06:16:17;;;;;;;1.33;1.20;;;13.20;99.90;;;;;;4993224;28;20422;-65
2020/12/22 06:18:45;;;;;;;2.17;1.20;;;13.20;99.90;;;;;;4992889;28;20419;-65
2020/12/22 06:21:15;;;;;;;1.90;1.10;;;13.20;1.00;;;;;;4992582;28;20800;-64
2020/12/22 06:23:41;;;;;;;1.90;1.20;;;13.20;1.00;;;;;;4992832;28;20418;-65
2020/12/22 06:26:07;;;;;;;1.92;1.15;;;13.20;1.00;;;;;;4992790;28;20425;-65
2020/12/22 06:28:34;;;;;;;1.13;1.10;;;13.20;22.10;;;;;;4992689;28;20418;-65
2020/12/22 06:31:14;;;;;;;1.70;1.30;;;13.20;99.90;;;;;;4992760;28;20426;-65
2020/12/22 06:33:40;;;;;;;1.40;1.30;;;13.10;99.90;;;;;;4992788;28;20414;-65
2020/12/22 06:36:07;;;;;;;1.40;1.30;;;13.00;99.90;;;;;;4992684;28;20406;-65
2020/12/22 06:38:49;;;;;;;1.20;1.10;;;13.00;99.90;;;;;;4992822;28;20517;-66
2020/12/22 06:41:45;;;;;;;1.40;1.20;;;13.00;99.90;;;;;;4992780;28;20863;-66
2020/12/22 06:44:25;;;;;;;1.80;1.37;;;13.10;99.90;;;;;;4979924;28;20445;-66
2020/12/22 06:46:52;;;;;;;1.27;1.17;;;13.00;99.90;;;;;;4992303;28;20418;-66
2020/12/22 06:49:39;;;;;;;1.20;1.10;;;13.00;1.00;;;;;;4992160;28;20461;-65
2020/12/22 06:52:27;;;;;;;1.20;1.10;;;13.00;1.00;;;;;;4992132;28;20418;-66
2020/12/22 06:54:54;;;;;;;2.28;1.20;;;13.00;1.00;;;;;;4992556;28;20433;-66
2020/12/22 06:57:41;;;;;;;1.40;1.30;;;13.00;1.00;;;;;;4992032;28;20791;-66
2020/12/22 07:00:08;;;;;;;1.50;1.40;;;13.00;1.00;;;;;;4991503;28;20430;-66
2020/12/22 07:02:35;;;;;;;1.57;1.47;;;13.00;1.00;;;;;;4992291;28;20426;-66
2020/12/22 07:05:02;;;;;;;1.40;1.30;;;13.00;1.00;;;;;;4991944;28;20966;-66
2020/12/22 07:07:56;;;;;;;1.50;1.40;;;13.00;1.00;;;;;;4991786;28;20441;-66
2020/12/22 07:10:27;;;;;;;1.90;1.30;;;13.00;1.00;;;;;;4957542;28;20998;-66
2020/12/22 07:12:56;;;;;;;1.90;1.70;;;13.00;1.00;;;;;;4992101;28;20429;-66
2020/12/22 07:15:23;;;;;;;1.10;1.00;;;13.00;1.00;;;;;;4991648;28;20417;-66
2020/12/22 07:17:50;;;;;;;1.30;1.20;;;13.00;1.00;;;;;;4991752;28;20414;-66
2020/12/22 07:20:17;;;;;;;1.27;1.17;;;13.00;1.00;;;;;;4991457;28;20430;-66
2020/12/22 07:22:43;;;;;;;1.90;1.30;;;13.00;99.90;;;;;;4991794;28;20437;-66
2020/12/22 07:25:09;;;;;;;1.80;1.70;;;13.00;99.90;;;;;;4991752;28;20426;-66
2020/12/22 07:27:36;;;;;;;1.37;1.00;;;13.10;99.90;;;;;;4992238;28;20410;-65
2020/12/22 07:30:03;;;;;;;1.42;1.10;;;13.10;99.90;;;;;;4994749;28;20422;-66
2020/12/22 07:32:29;;;;;;;1.30;1.20;;;13.10;90.80;;;;;;4991304;28;20465;-66
2020/12/22 07:34:55;;;;;;;1.10;1.10;;;13.10;54.50;;;;;;5011344;28;20781;-66
2020/12/22 07:37:21;;;;;;;1.20;1.10;;;13.10;1.00;;;;;;5011252;28;20417;-64
2020/12/22 07:39:47;;;;;;;1.20;1.10;;;13.10;1.00;;;;;;5010981;28;20917;-64
2020/12/22 07:42:15;;;;;;;1.30;1.10;;;13.20;1.00;;;;;;5011388;28;20412;-68
2020/12/22 07:44:43;;;;;;;1.20;1.02;;;13.20;1.00;;;;;;5011003;28;20474;-65
2020/12/22 07:47:10;;;;;;;1.25;1.15;;;13.20;1.00;;;;;;5011659;28;20416;-65
2020/12/22 07:49:36;;;;;;;1.00;0.90;;;13.20;1.00;;;;;;5011125;28;20809;-64
2020/12/22 07:52:02;;;;;;;2.70;1.45;;;13.20;1.00;;;;;;5011481;28;20420;-65
2020/12/22 07:54:28;;;;;;;1.87;1.10;;;13.20;99.90;;;;;;5011183;28;20412;-64
2020/12/22 07:56:58;;;;;;;1.20;1.00;;;13.30;99.90;;;;;;5011085;28;20417;-64
2020/12/22 07:59:25;;;;;;;0.93;0.93;;;13.20;99.90;;;;;;5011024;28;20436;-63
2020/12/22 08:01:53;;;;;;;2.10;1.00;;;13.30;99.90;;;;;;5010816;28;20464;-65
2020/12/22 08:04:20;;;;;;;1.95;1.20;;;13.20;99.90;;;;;;5010656;28;20413;-65
2020/12/22 08:06:54;;;;;;;1.23;1.10;;;13.30;99.90;;;;;;5011257;28;20428;-64
2020/12/22 08:09:24;;;;;;;0.98;0.90;;;13.30;92.90;;;;;;5010895;28;20431;-65
2020/12/22 08:11:52;;;;;;;1.40;0.90;;;13.30;2.80;;;;;;5010973;28;20423;-64
2020/12/22 08:14:21;;;;;;;1.90;1.70;;;13.30;1.00;;;;;;5014513;28;20951;-64
2020/12/22 08:16:49;;;;;;;2.35;1.10;;;13.30;1.00;;;;;;5014408;28;20427;-64
2020/12/22 08:19:16;;;;;;;1.50;1.00;;;13.30;1.00;;;;;;5014695;28;20424;-64
2020/12/22 08:21:43;;;;;;;2.60;1.10;;;13.40;1.00;;;;;;5014607;28;20412;-65
2020/12/22 08:24:09;;;;;;;1.90;1.10;;;13.30;1.00;;;;;;5006787;28;20422;-64
2020/12/22 08:26:35;;;;;;;1.20;0.90;;;13.30;1.00;;;;;;4994502;28;20426;-64
2020/12/22 08:29:03;;;;;;;1.20;1.00;;;13.40;1.00;;;;;;4995741;28;20418;-64
2020/12/22 08:31:31;;;;;;;2.45;1.20;;;13.30;1.00;;;;;;4994659;28;20907;-64
2020/12/22 08:33:59;;;;;;;1.80;1.00;;;13.40;99.90;;;;;;4995290;28;20422;-64
2020/12/22 08:36:28;;;;;;;0.90;0.90;;;13.40;99.90;;;;;;4994975;28;20475;-64
2020/12/22 08:39:18;;;;;;;1.10;1.00;;;13.30;99.90;;;;;;4997613;28;20433;-66
2020/12/22 08:41:46;;;;;;;1.90;1.00;;;13.40;99.90;;;;;;4998832;28;20521;-66
2020/12/22 08:44:13;;;;;;;1.60;1.40;;;13.40;99.90;;;;;;4996008;28;20418;-65
2020/12/22 08:46:41;;;;;;;1.80;0.80;;;13.40;99.90;;;;;;4995645;28;20433;-66
2020/12/22 08:49:24;;;;;;;1.40;1.17;;;13.30;99.90;;;;;;4995813;28;20426;-65
2020/12/22 08:51:51;;;;;;;1.40;1.00;;;13.30;1.00;;;;;;4995169;28;20489;-65
2020/12/22 08:54:18;;;;;;;1.90;1.10;;;13.20;99.90;;;;;;4994691;28;20418;-65
2020/12/22 08:56:44;;;;;;;3.22;1.40;;;13.20;1.00;;;;;;4995129;28;20803;-65
2020/12/22 08:59:11;;;;;;;1.40;1.20;;;13.20;99.90;;;;;;4995011;28;20422;-65
2020/12/22 09:01:42;;;;;;;1.90;1.00;;;13.30;99.90;;;;;;4994801;28;20457;-65
2020/12/22 09:04:10;;;;;;;1.73;1.00;;;13.30;99.90;;;;;;4994292;28;20422;-65
2020/12/22 09:06:38;;;;;;;1.13;0.90;;;13.40;99.90;;;;;;4994770;28;20839;-66
2020/12/22 09:09:06;;;;;;;1.00;0.90;;;13.40;99.90;;;;;;4994950;28;20434;-66
2020/12/22 09:11:33;;;;;;;1.80;1.20;;;13.40;99.90;;;;;;4994838;28;20516;-64
2020/12/22 09:14:01;;;;;;;2.07;1.10;;;13.40;99.90;;;;;;4994370;28;20494;-66
2020/12/22 09:16:45;;;;;;;1.50;0.90;;;13.30;99.90;;;;;;4994144;28;20414;-66
2020/12/22 09:19:11;;;;;;;1.30;1.00;;;13.40;99.90;;;;;;4994871;28;20410;-65
2020/12/22 09:21:38;;;;;;;1.10;1.00;;;13.40;99.90;;;;;;4994446;28;20579;-64
2020/12/22 09:24:05;;;;;;;1.25;0.90;;;13.50;99.90;;;;;;4994046;28;20429;-65
2020/12/22 09:26:31;;;;;;;3.28;0.90;;;13.60;69.70;;;;;;4994133;28;20430;-65
2020/12/22 09:28:57;;;;;;;2.30;1.70;;;13.50;68.80;;;;;;4993977;28;20419;-66
2020/12/22 09:31:24;;;;;;;1.40;0.88;;;13.60;1.00;;;;;;4994257;28;20954;-65
2020/12/22 09:33:50;;;;;;;1.30;0.90;;;13.50;1.00;;;;;;4994210;28;20418;-66
2020/12/22 09:36:16;;;;;;;1.00;0.80;;;13.60;1.00;;;;;;4993474;28;20426;-66
2020/12/22 09:38:42;;;;;;;1.63;0.85;;;13.70;1.00;;;;;;4993889;28;20414;-66
2020/12/22 09:41:09;;;;;;;1.75;1.10;;;13.60;1.00;;;;;;4993174;28;20977;-66
2020/12/22 09:43:35;;;;;;;1.30;1.00;;;13.60;99.90;;;;;;4993970;28;20426;-66
2020/12/22 09:46:02;;;;;;;1.10;1.00;;;13.60;99.90;;;;;;4993256;28;20425;-66
2020/12/22 09:48:28;;;;;;;1.00;0.90;;;13.70;99.90;;;;;;4993455;28;20422;-66
2020/12/22 09:50:54;;;;;;;3.10;1.10;;;13.80;99.90;;;;;;4993690;28;20410;-66
2020/12/22 09:53:20;;;;;;;1.20;1.10;;;13.80;99.90;;;;;;4993840;28;20422;-66
2020/12/22 09:55:46;;;;;;;1.40;1.20;;;13.70;99.90;;;;;;4995518;28;20411;-65
2020/12/22 09:58:13;;;;;;;1.73;1.20;;;13.60;99.90;;;;;;4993264;28;20418;-65
2020/12/22 10:00:42;;;;;;;1.58;1.40;;;13.60;99.90;;;;;;4993962;28;20441;-65
2020/12/22 10:03:09;;;;;;;2.10;1.40;;;13.50;99.90;;;;;;4993977;28;20421;-65
2020/12/22 10:05:35;;;;;;;2.05;1.63;;;13.50;99.90;;;;;;4993336;28;20815;-66
2020/12/22 10:08:02;;;;;;;2.28;1.58;;;13.50;99.90;;;;;;4993528;28;20414;-65
2020/12/22 10:10:28;;;;;;;2.42;1.40;;;13.50;99.90;;;;;;4993919;28;20468;-67
2020/12/22 10:12:54;;;;;;;1.73;1.33;;;13.40;99.90;;;;;;4997335;28;20425;-67
2020/12/22 10:15:21;;;;;;;2.60;1.60;;;13.40;99.90;;;;;;5003499;28;20473;-65
2020/12/22 10:17:47;;;;;;;5.35;1.88;;;13.50;99.90;;;;;;4993791;28;20411;-66
2020/12/22 10:20:13;;;;;;;1.30;1.20;;;13.60;99.90;;;;;;4993561;28;21091;-66
2020/12/22 10:22:39;;;;;;;2.83;1.20;;;13.60;99.90;;;;;;4994007;28;20426;-66
2020/12/22 10:25:05;;;;;;;2.10;1.27;;;13.60;99.90;;;;;;4994932;28;20425;-67
2020/12/22 10:27:31;;;;;;;1.95;1.40;;;13.50;99.90;;;;;;4994678;28;20492;-66
2020/12/22 10:29:57;;;;;;;2.42;1.40;;;13.40;99.90;;;;;;4993326;28;20411;-66
2020/12/22 10:32:24;;;;;;;2.17;1.40;;;13.40;99.90;;;;;;4994430;28;20831;-66
2020/12/22 10:34:50;;;;;;;1.83;1.50;;;13.40;99.90;;;;;;4995577;28;20425;-67
2020/12/22 10:37:17;;;;;;;2.00;1.60;;;13.30;99.90;;;;;;4995796;28;20795;-66
2020/12/22 10:39:48;;;;;;;1.70;1.60;;;13.30;99.90;;;;;;4994991;28;20422;-67
2020/12/22 10:42:14;;;;;;;2.55;1.90;;;13.40;1.00;;;;;;4994633;28;20422;-67
2020/12/22 10:44:40;;;;;;;1.80;1.70;;;13.20;1.00;;;;;;4994354;28;20472;-67
2020/12/22 10:47:06;;;;;;;1.50;1.40;;;13.00;17.70;;;;;;4994225;28;20468;-66
2020/12/22 10:49:33;;;;;;;2.40;1.50;;;13.10;46.00;;;;;;4993272;28;20433;-68
2020/12/22 10:51:59;;;;;;;1.48;1.38;;;13.20;14.20;;;;;;4995197;28;20418;-70
2020/12/22 10:54:25;;;;;;;2.40;1.48;;;13.10;1.00;;;;;;4994482;28;20891;-68
2020/12/22 10:56:51;;;;;;;1.50;1.40;;;13.10;1.00;;;;;;4994904;28;20469;-68
2020/12/22 10:59:17;;;;;;;1.60;1.50;;;13.00;1.00;;;;;;4995078;28;20425;-67
2020/12/22 11:01:47;;;;;;;1.90;1.33;;;13.10;1.00;;;;;;4994068;28;20441;-68
2020/12/22 11:04:13;;;;;;;1.50;1.40;;;13.20;1.00;;;;;;4992856;28;20898;-66
2020/12/22 11:06:48;;;;;;;2.00;1.80;;;13.30;1.00;;;;;;4992391;28;20430;-67
2020/12/22 11:09:14;;;;;;;2.20;2.00;;;13.30;1.00;;;;;;4992484;28;20422;-67
2020/12/22 11:11:43;;;;;;;3.03;2.40;;;13.30;1.00;;;;;;4993160;28;20437;-67
2020/12/22 11:14:11;;;;;;;2.50;2.30;;;13.40;1.00;;;;;;4994947;28;21091;-68
2020/12/22 11:16:37;;;;;;;4.15;2.67;;;13.40;1.00;;;;;;4993306;28;20421;-68
2020/12/22 11:19:03;;;;;;;2.50;2.10;;;13.30;1.00;;;;;;4993297;28;20422;-67
2020/12/22 11:21:29;;;;;;;2.00;1.80;;;13.30;1.00;;;;;;4993029;28;20430;-67
2020/12/22 11:23:57;;;;;;;2.33;1.98;;;13.30;1.00;;;;;;4992012;28;20418;-70
2020/12/22 11:26:25;;;;;;;2.10;2.00;;;13.30;1.00;;;;;;4991209;28;20494;-64
2020/12/22 11:28:52;;;;;;;2.00;1.90;;;13.40;99.90;;;;;;4991928;28;20513;-64
2020/12/22 11:31:18;;;;;;;2.20;1.98;;;13.40;99.90;;;;;;4991871;28;20910;-64
2020/12/22 11:33:45;;;;;;;2.20;1.60;;;13.40;99.90;;;;;;4991667;28;20426;-68
2020/12/22 11:36:11;;;;;;;1.92;1.83;;;13.50;99.90;;;;;;4991701;28;20434;-68
2020/12/22 11:38:38;;;;;;;2.00;1.75;;;13.50;99.90;;;;;;4991892;28;20476;-67
2020/12/22 11:41:06;;;;;;;1.70;1.60;;;13.50;99.90;;;;;;4991796;28;20434;-66
2020/12/22 11:43:33;;;;;;;2.30;2.10;;;13.30;99.90;;;;;;4991615;28;20424;-67
2020/12/22 11:45:59;;;;;;;2.30;2.10;;;13.30;99.90;;;;;;4991580;28;20769;-67
2020/12/22 11:48:25;;;;;;;1.90;1.70;;;13.20;99.90;;;;;;4994293;28;20442;-66
2020/12/22 11:50:52;;;;;;;1.70;1.50;;;13.20;99.90;;;;;;4995838;28;20495;-67
2020/12/22 11:53:18;;;;;;;1.60;1.50;;;13.20;99.90;;;;;;4995392;28;20436;-65
2020/12/22 11:55:44;;;;;;;4.50;1.80;;;13.10;99.90;;;;;;4995548;28;20429;-64
2020/12/22 11:58:14;;;;;;;1.50;1.40;;;13.30;99.90;;;;;;4996004;28;20426;-65
2020/12/22 12:00:40;;;;;;;1.45;1.35;;;13.30;99.90;;;;;;4995369;28;20437;-65
2020/12/22 12:03:06;;;;;;;1.70;1.60;;;13.20;99.90;;;;;;4995442;28;20419;-65
2020/12/22 12:05:32;;;;;;;1.38;1.25;;;13.20;99.90;;;;;;4995149;28;20445;-63
2020/12/22 12:07:58;;;;;;;2.35;1.50;;;13.30;99.90;;;;;;4995643;28;20445;-63
2020/12/22 12:10:25;;;;;;;3.10;1.70;;;13.10;99.90;;;;;;4995945;28;20425;-63
2020/12/22 12:12:51;;;;;;;2.40;1.45;;;13.20;99.90;;;;;;4996106;28;20425;-63
2020/12/22 12:15:18;;;;;;;1.90;1.50;;;13.20;99.90;;;;;;4995386;28;20418;-63
2020/12/22 12:17:44;;;;;;;2.20;1.88;;;13.20;99.90;;;;;;4995696;28;20422;-63
2020/12/22 12:20:10;;;;;;;2.20;1.40;;;13.20;99.90;;;;;;4995432;28;21048;-65
2020/12/22 12:22:36;;;;;;;2.38;2.17;;;13.20;92.50;;;;;;4995019;28;20418;-63
2020/12/22 12:25:03;;;;;;;3.23;1.73;;;13.30;54.80;;;;;;4994847;28;20418;-63
2020/12/22 12:27:29;;;;;;;2.10;1.47;;;13.10;77.70;;;;;;4994934;28;20422;-64
2020/12/22 12:29:55;;;;;;;1.52;1.17;;;13.10;60.40;;;;;;4995106;28;20887;-65
2020/12/22 12:32:26;;;;;;;3.35;1.30;;;13.10;53.00;;;;;;4995065;28;20419;-64
2020/12/22 12:34:52;;;;;;;1.15;1.05;;;13.20;36.30;;;;;;4995116;28;20445;-64
2020/12/22 12:37:19;;;;;;;3.78;1.10;;;13.20;19.40;;;;;;4995016;28;20422;-64
2020/12/22 12:39:45;;;;;;;1.67;1.27;;;13.20;5.90;;;;;;4994899;28;20425;-65
2020/12/22 12:42:11;;;;;;;1.65;1.20;;;13.20;1.00;;;;;;4997504;28;20418;-65
2020/12/22 12:44:37;;;;;;;1.80;1.00;;;13.30;1.00;;;;;;4994328;28;20414;-64
2020/12/22 12:47:03;;;;;;;1.33;1.20;;;13.30;1.00;;;;;;4994068;28;20418;-63
2020/12/22 12:49:30;;;;;;;1.80;1.08;;;13.20;1.00;;;;;;4994399;28;20414;-64
2020/12/22 12:51:56;;;;;;;1.38;0.98;;;13.20;1.00;;;;;;4994825;28;20784;-65